createdAt,value
2023-04-17T00:02:20.394Z,8.50
2023-04-17T00:04:47.322Z,8.40
2023-04-17T00:07:14.247Z,8.30
2023-04-17T00:09:40.807Z,8.30
2023-04-17T00:12:07.339Z,8.30
2023-04-17T00:14:33.877Z,8.30
2023-04-17T00:17:00.526Z,8.20
2023-04-17T00:19:27.049Z,8.30
2023-04-17T00:21:53.577Z,8.20
2023-04-17T00:24:20.081Z,8.30
2023-04-17T00:26:46.586Z,8.30
2023-04-17T00:29:13.287Z,8.30
2023-04-17T00:31:39.913Z,8.30
2023-04-17T00:34:06.505Z,8.30
2023-04-17T00:36:33.026Z,8.30
2023-04-17T00:38:59.574Z,8.30
2023-04-17T00:41:26.101Z,8.30
2023-04-17T00:43:52.617Z,8.40
2023-04-17T00:46:19.163Z,8.40
2023-04-17T00:48:45.866Z,8.30
2023-04-17T00:51:12.441Z,8.30
2023-04-17T00:53:39.185Z,8.20
2023-04-17T00:56:05.903Z,8.30
2023-04-17T00:58:33.235Z,8.20
2023-04-17T01:00:59.819Z,8.20
2023-04-17T01:03:26.465Z,8.20
2023-04-17T01:05:53.181Z,8.20
2023-04-17T01:08:19.801Z,8.10
2023-04-17T01:10:46.337Z,8.10
2023-04-17T01:13:12.909Z,8.20
2023-04-17T01:15:39.562Z,8.20
2023-04-17T01:18:06.608Z,8.10
2023-04-17T01:20:34.051Z,8.20
2023-04-17T01:23:01.677Z,8.10
2023-04-17T01:25:28.264Z,8.10
2023-04-17T01:27:54.952Z,8.00
2023-04-17T01:30:21.595Z,8.00
2023-04-17T01:32:48.177Z,8.10
2023-04-17T01:35:14.765Z,8.00
2023-04-17T01:37:41.427Z,8.00
2023-04-17T01:40:08.502Z,8.10
2023-04-17T01:42:35.235Z,8.10
2023-04-17T01:45:01.750Z,8.00
2023-04-17T01:47:28.372Z,8.10
2023-04-17T01:49:54.896Z,8.10
2023-04-17T01:52:21.506Z,8.10
2023-04-17T01:54:48.021Z,8.10
2023-04-17T01:57:14.516Z,8.10
2023-04-17T01:59:41.060Z,8.00
2023-04-17T02:02:07.677Z,8.00
2023-04-17T02:04:34.390Z,8.00
2023-04-17T02:07:00.914Z,8.00
2023-04-17T02:09:27.648Z,8.00
2023-04-17T02:11:54.243Z,8.00
2023-04-17T02:14:20.884Z,8.00
2023-04-17T02:16:47.409Z,8.00
2023-04-17T02:19:14.108Z,8.00
2023-04-17T02:21:40.695Z,8.00
2023-04-17T02:24:07.189Z,8.00
2023-04-17T02:26:34.097Z,8.00
2023-04-17T02:29:00.613Z,7.90
2023-04-17T02:31:27.207Z,7.90
2023-04-17T02:33:53.806Z,8.00
2023-04-17T02:36:20.359Z,7.90
2023-04-17T02:38:47.006Z,7.90
2023-04-17T02:41:13.539Z,7.90
2023-04-17T02:43:40.281Z,7.90
2023-04-17T02:46:06.861Z,7.80
2023-04-17T02:48:33.381Z,7.90
2023-04-17T02:50:59.894Z,7.90
2023-04-17T02:53:26.424Z,7.90
2023-04-17T02:55:52.987Z,8.00
2023-04-17T02:58:19.505Z,7.90
2023-04-17T03:00:46.122Z,7.90
2023-04-17T03:03:12.852Z,7.90
2023-04-17T03:05:39.533Z,7.90
2023-04-17T03:08:06.478Z,7.80
2023-04-17T03:10:33.005Z,7.80
2023-04-17T03:12:59.519Z,7.80
2023-04-17T03:15:26.989Z,7.80
2023-04-17T03:17:53.543Z,7.80
2023-04-17T03:20:20.101Z,7.70
2023-04-17T03:22:46.619Z,7.80
2023-04-17T03:25:13.128Z,7.80
2023-04-17T03:27:39.726Z,7.80
2023-04-17T03:30:06.624Z,7.80
2023-04-17T03:32:33.256Z,7.70
2023-04-17T03:34:59.868Z,7.70
2023-04-17T03:37:26.403Z,7.60
2023-04-17T03:39:53.000Z,7.70
2023-04-17T03:42:19.537Z,7.60
2023-04-17T03:44:46.648Z,7.60
2023-04-17T03:47:13.225Z,7.60
2023-04-17T03:49:39.824Z,7.60
2023-04-17T03:52:06.378Z,7.60
2023-04-17T03:54:35.502Z,7.50
2023-04-17T03:57:03.119Z,7.50
2023-04-17T03:59:33.193Z,7.50
2023-04-17T04:01:59.935Z,7.60
2023-04-17T04:04:26.767Z,7.60
2023-04-17T04:06:57.371Z,7.50
2023-04-17T04:09:25.002Z,7.60
2023-04-17T04:11:51.518Z,7.60
2023-04-17T04:14:18.086Z,7.60
2023-04-17T04:19:34.905Z,7.60
2023-04-17T04:22:01.527Z,7.60
2023-04-17T04:24:28.387Z,7.60
2023-04-17T04:26:54.996Z,7.60
2023-04-17T04:29:25.596Z,7.70
2023-04-17T04:31:52.229Z,7.70
2023-04-17T04:34:18.864Z,7.60
2023-04-17T04:36:50.682Z,7.60
2023-04-17T04:39:20.449Z,7.60
2023-04-17T04:41:50.680Z,7.70
2023-04-17T04:44:17.643Z,7.70
2023-04-17T04:46:44.633Z,7.70
2023-04-17T04:49:11.442Z,7.80
2023-04-17T04:51:38.235Z,7.80
2023-04-17T04:54:05.590Z,7.70
2023-04-17T04:56:33.464Z,7.70
2023-04-17T04:59:00.121Z,7.70
2023-04-17T05:01:29.768Z,7.70
2023-04-17T05:03:56.594Z,7.80
2023-04-17T05:06:23.327Z,7.70
2023-04-17T05:08:49.864Z,7.70
2023-04-17T05:11:16.592Z,7.80
2023-04-17T05:13:43.135Z,7.70
2023-04-17T05:16:09.668Z,7.70
2023-04-17T05:18:36.328Z,7.70
2023-04-17T05:21:03.352Z,7.60
2023-04-17T05:23:30.055Z,7.70
2023-04-17T05:25:56.723Z,7.70
2023-04-17T05:28:23.251Z,7.70
2023-04-17T05:30:49.782Z,7.70
2023-04-17T05:33:16.348Z,7.70
2023-04-17T05:35:42.857Z,7.70
2023-04-17T05:38:09.479Z,7.70
2023-04-17T05:40:36.052Z,7.70
2023-04-17T05:46:00.396Z,7.70
2023-04-17T05:48:27.011Z,7.80
2023-04-17T05:50:53.502Z,7.70
2023-04-17T05:53:20.039Z,7.80
2023-04-17T05:55:46.611Z,7.80
2023-04-17T06:00:42.549Z,7.80
2023-04-17T06:03:09.259Z,7.80
2023-04-17T06:05:36.202Z,7.80
2023-04-17T06:08:02.896Z,7.80
2023-04-17T06:10:29.393Z,7.90
2023-04-17T06:12:55.968Z,7.90
2023-04-17T06:15:22.550Z,7.80
2023-04-17T06:17:49.121Z,7.80
2023-04-17T06:20:15.697Z,7.80
2023-04-17T06:22:44.273Z,7.90
2023-04-17T06:25:10.966Z,7.90
2023-04-17T06:27:37.533Z,8.00
2023-04-17T06:30:04.629Z,7.90
2023-04-17T06:32:31.183Z,8.00
2023-04-17T06:34:59.341Z,8.00
2023-04-17T06:37:26.382Z,8.10
2023-04-17T06:39:52.887Z,8.00
2023-04-17T06:42:20.525Z,8.10
2023-04-17T06:44:47.068Z,8.10
2023-04-17T06:47:13.572Z,8.30
2023-04-17T06:49:40.396Z,8.30
2023-04-17T06:52:06.901Z,8.10
2023-04-17T06:54:33.526Z,8.10
2023-04-17T06:57:00.857Z,8.20
2023-04-17T06:59:27.396Z,8.20
2023-04-17T07:01:54.129Z,8.20
2023-04-17T07:04:21.439Z,8.20
2023-04-17T07:06:48.042Z,8.20
2023-04-17T07:09:14.782Z,8.20
2023-04-17T07:11:41.444Z,8.20
2023-04-17T07:14:07.988Z,8.10
2023-04-17T07:16:34.538Z,8.20
2023-04-17T07:19:01.089Z,8.20
2023-04-17T07:21:27.672Z,8.20
2023-04-17T07:23:54.172Z,8.20
2023-04-17T07:26:20.842Z,8.20
2023-04-17T07:28:47.479Z,8.20
2023-04-17T07:31:14.087Z,8.20
2023-04-17T07:33:40.737Z,8.20
2023-04-17T07:36:11.340Z,8.20
2023-04-17T07:38:40.298Z,8.10
2023-04-17T07:41:07.524Z,8.10
2023-04-17T07:43:34.089Z,8.00
2023-04-17T07:46:00.582Z,8.00
2023-04-17T07:48:27.320Z,8.10
2023-04-17T07:50:53.823Z,8.10
2023-04-17T07:53:22.115Z,8.00
2023-04-17T07:55:49.000Z,8.00
2023-04-17T07:58:16.365Z,8.10
2023-04-17T08:00:43.378Z,8.10
2023-04-17T08:03:10.104Z,8.00
2023-04-17T08:05:36.870Z,8.00
2023-04-17T08:08:04.431Z,8.00
2023-04-17T08:10:31.336Z,8.00
2023-04-17T08:12:57.937Z,8.00
2023-04-17T08:15:24.587Z,8.20
2023-04-17T08:17:51.126Z,8.30
2023-04-17T08:20:18.409Z,8.20
2023-04-17T08:22:46.050Z,8.20
2023-04-17T08:25:13.199Z,8.30
2023-04-17T08:27:41.430Z,8.30
2023-04-17T08:30:11.225Z,8.40
2023-04-17T08:32:40.106Z,8.40
2023-04-17T08:35:07.234Z,8.50
2023-04-17T08:37:35.555Z,8.40
2023-04-17T08:40:04.330Z,8.60
2023-04-17T08:42:34.489Z,8.50
2023-04-17T08:45:04.973Z,8.50
2023-04-17T08:47:32.846Z,8.40
2023-04-17T08:50:00.368Z,8.50
2023-04-17T08:52:27.066Z,8.40
2023-04-17T08:54:53.578Z,8.40
2023-04-17T08:57:20.080Z,8.40
2023-04-17T08:59:46.925Z,8.40
2023-04-17T09:02:13.608Z,8.50
2023-04-17T09:04:41.870Z,8.70
2023-04-17T09:07:12.293Z,8.80
2023-04-17T09:09:51.028Z,8.80
2023-04-17T09:12:18.285Z,8.70
2023-04-17T09:14:44.857Z,8.70
2023-04-17T09:17:11.778Z,8.80
2023-04-17T09:19:38.411Z,8.70
2023-04-17T09:22:18.001Z,8.70
2023-04-17T09:24:44.852Z,8.60
2023-04-17T09:27:22.714Z,8.70
2023-04-17T09:30:02.826Z,8.60
2023-04-17T09:32:30.542Z,8.50
2023-04-17T09:34:58.006Z,8.70
2023-04-17T09:37:24.557Z,8.80
2023-04-17T09:39:58.860Z,8.80
2023-04-17T09:42:26.247Z,8.90
2023-04-17T09:44:54.482Z,8.90
2023-04-17T09:47:22.343Z,8.80
2023-04-17T09:49:50.199Z,8.90
2023-04-17T09:52:16.891Z,8.80
2023-04-17T09:54:43.560Z,8.90
2023-04-17T09:57:10.793Z,9.10
2023-04-17T09:59:41.456Z,9.10
2023-04-17T10:02:09.349Z,8.90
2023-04-17T10:04:36.646Z,8.70
2023-04-17T10:07:04.431Z,8.60
2023-04-17T10:09:31.053Z,8.60
2023-04-17T10:11:58.302Z,8.50
2023-04-17T10:14:26.381Z,8.40
2023-04-17T10:16:53.685Z,8.40
2023-04-17T10:19:33.319Z,8.40
2023-04-17T10:22:18.027Z,8.30
2023-04-17T10:24:45.623Z,8.30
2023-04-17T10:27:24.257Z,8.20
2023-04-17T10:30:01.620Z,8.20
2023-04-17T10:32:29.034Z,8.30
2023-04-17T10:34:59.499Z,8.30
2023-04-17T10:37:44.743Z,8.30
2023-04-17T10:40:12.479Z,8.30
2023-04-17T10:42:40.166Z,8.30
2023-04-17T10:45:17.651Z,8.30
2023-04-17T10:47:45.359Z,8.20
2023-04-17T10:50:11.882Z,8.20
2023-04-17T10:52:42.997Z,8.30
2023-04-17T10:55:10.711Z,8.20
2023-04-17T10:57:53.493Z,8.40
2023-04-17T11:00:20.667Z,8.60
2023-04-17T11:02:50.149Z,8.80
2023-04-17T11:05:17.320Z,8.90
2023-04-17T11:07:44.328Z,8.90
2023-04-17T11:10:11.033Z,8.80
2023-04-17T11:12:39.214Z,8.90
2023-04-17T11:15:06.301Z,8.60
2023-04-17T11:17:33.016Z,8.60
2023-04-17T11:19:59.888Z,8.50
2023-04-17T11:22:27.905Z,8.50
2023-04-17T11:24:54.402Z,8.40
2023-04-17T11:27:22.145Z,8.40
2023-04-17T11:29:48.667Z,8.30
2023-04-17T11:32:15.495Z,8.30
2023-04-17T11:34:42.568Z,8.30
2023-04-17T11:37:13.218Z,8.30
2023-04-17T11:39:41.572Z,8.30
2023-04-17T11:42:08.265Z,8.40
2023-04-17T11:44:34.775Z,8.30
2023-04-17T11:47:01.887Z,8.40
2023-04-17T11:49:29.594Z,8.40
2023-04-17T11:51:58.910Z,8.60
2023-04-17T11:54:29.239Z,8.70
2023-04-17T11:56:59.587Z,8.80
2023-04-17T11:59:32.972Z,8.90
2023-04-17T12:02:01.678Z,9.00
2023-04-17T12:04:34.089Z,9.10
2023-04-17T12:07:01.906Z,9.30
2023-04-17T12:09:31.862Z,9.40
2023-04-17T12:11:59.092Z,9.40
2023-04-17T12:14:26.523Z,9.50
2023-04-17T12:16:53.608Z,9.40
2023-04-17T12:19:20.354Z,9.30
2023-04-17T12:21:49.911Z,9.00
2023-04-17T12:24:18.167Z,8.90
2023-04-17T12:26:48.685Z,8.80
2023-04-17T12:29:16.127Z,8.80
2023-04-17T12:31:43.078Z,8.80
2023-04-17T12:34:09.694Z,8.70
2023-04-17T12:36:36.327Z,8.70
2023-04-17T12:39:13.867Z,8.70
2023-04-17T12:42:01.394Z,8.70
2023-04-17T12:44:27.889Z,8.70
2023-04-17T12:46:54.444Z,8.70
2023-04-17T12:52:11.904Z,8.70
2023-04-17T12:54:40.163Z,8.80
2023-04-17T12:57:06.688Z,8.80
2023-04-17T12:59:33.213Z,8.80
2023-04-17T13:02:00.483Z,8.90
2023-04-17T13:04:27.341Z,9.00
2023-04-17T13:06:54.024Z,9.20
2023-04-17T13:09:20.660Z,9.30
2023-04-17T13:11:47.156Z,9.30
2023-04-17T13:14:15.408Z,9.40
2023-04-17T13:16:42.316Z,9.40
2023-04-17T13:19:09.139Z,9.40
2023-04-17T13:21:35.766Z,9.30
2023-04-17T13:24:02.325Z,9.30
2023-04-17T13:26:29.000Z,9.30
2023-04-17T13:28:55.514Z,9.20
2023-04-17T13:31:24.407Z,9.20
2023-04-17T13:33:50.986Z,9.10
2023-04-17T13:36:18.088Z,9.20
2023-04-17T13:38:44.613Z,9.30
2023-04-17T13:41:12.057Z,9.40
2023-04-17T13:43:39.066Z,9.40
2023-04-17T13:46:05.625Z,9.50
2023-04-17T13:48:32.245Z,9.40
2023-04-17T13:50:58.812Z,9.40
2023-04-17T13:53:27.616Z,9.30
2023-04-17T13:55:54.158Z,9.10
2023-04-17T13:58:20.656Z,9.00
2023-04-17T14:00:47.513Z,9.00
2023-04-17T14:03:14.228Z,8.90
2023-04-17T14:05:40.963Z,8.90
2023-04-17T14:08:07.513Z,8.80
2023-04-17T14:10:35.204Z,8.80
2023-04-17T14:13:01.836Z,8.80
2023-04-17T14:15:28.570Z,8.80
2023-04-17T14:17:56.279Z,8.80
2023-04-17T14:20:22.821Z,8.80
2023-04-17T14:22:49.535Z,8.90
2023-04-17T14:25:16.584Z,8.80
2023-04-17T14:27:43.323Z,8.80
2023-04-17T14:30:10.060Z,8.80
2023-04-17T14:32:38.372Z,8.80
2023-04-17T14:35:05.501Z,8.70
2023-04-17T14:37:32.070Z,8.70
2023-04-17T14:39:58.645Z,8.70
2023-04-17T14:42:25.319Z,8.60
2023-04-17T14:44:51.829Z,8.70
2023-04-17T14:47:18.792Z,8.70
2023-04-17T14:49:45.446Z,8.70
2023-04-17T14:52:12.011Z,8.70
2023-04-17T14:54:38.554Z,8.80
2023-04-17T14:57:05.169Z,8.80
2023-04-17T14:59:31.788Z,8.80
2023-04-17T15:01:58.511Z,8.70
2023-04-17T15:04:25.393Z,8.80
2023-04-17T15:06:51.949Z,8.80
2023-04-17T15:09:18.445Z,8.80
2023-04-17T15:11:46.857Z,8.80
2023-04-17T15:14:13.490Z,8.80
2023-04-17T15:16:40.045Z,8.80
2023-04-17T15:19:06.841Z,8.70
2023-04-17T15:21:33.387Z,8.70
2023-04-17T15:23:59.891Z,8.60
2023-04-17T15:26:27.366Z,8.60
2023-04-17T15:28:53.965Z,8.60
2023-04-17T15:31:22.291Z,8.60
2023-04-17T15:33:48.972Z,8.60
2023-04-17T15:36:15.642Z,8.60
2023-04-17T15:38:42.251Z,8.70
2023-04-17T15:41:10.596Z,8.80
2023-04-17T15:43:37.737Z,8.80
2023-04-17T15:46:04.479Z,8.80
2023-04-17T15:48:31.280Z,8.80
2023-04-17T15:50:57.834Z,8.80
2023-04-17T15:53:24.310Z,8.80
2023-04-17T15:55:52.034Z,8.80
2023-04-17T15:58:18.624Z,8.80
2023-04-17T16:00:45.194Z,8.80
2023-04-17T16:03:11.858Z,8.90
2023-04-17T16:05:38.494Z,8.80
2023-04-17T16:08:05.163Z,8.80
2023-04-17T16:10:34.068Z,8.80
2023-04-17T16:13:00.608Z,8.80
2023-04-17T16:15:27.529Z,8.70
2023-04-17T16:17:54.304Z,8.70
2023-04-17T16:20:20.859Z,8.70
2023-04-17T16:22:47.417Z,8.70
2023-04-17T16:25:13.991Z,8.80
2023-04-17T16:27:40.665Z,8.90
2023-04-17T16:30:07.983Z,8.90
2023-04-17T16:32:34.573Z,8.90
2023-04-17T16:35:01.502Z,8.80
2023-04-17T16:37:28.033Z,8.80
2023-04-17T16:39:54.987Z,8.80
2023-04-17T16:42:21.612Z,8.80
2023-04-17T16:44:48.183Z,8.70
2023-04-17T16:47:15.088Z,8.70
2023-04-17T16:49:42.101Z,8.80
2023-04-17T16:52:08.752Z,8.80
2023-04-17T16:54:35.372Z,8.90
2023-04-17T16:57:02.037Z,9.00
2023-04-17T16:59:28.619Z,9.00
2023-04-17T17:01:55.280Z,9.00
2023-04-17T17:04:21.957Z,8.90
2023-04-17T17:06:48.506Z,8.70
2023-04-17T17:09:15.354Z,8.70
2023-04-17T17:11:42.176Z,8.70
2023-04-17T17:14:08.734Z,8.70
2023-04-17T17:16:35.396Z,8.50
2023-04-17T17:19:02.321Z,8.50
2023-04-17T17:21:28.890Z,8.50
2023-04-17T17:23:55.455Z,8.40
2023-04-17T17:26:22.104Z,8.50
2023-04-17T17:28:51.256Z,8.50
2023-04-17T17:31:18.032Z,8.50
2023-04-17T17:33:44.863Z,8.40
2023-04-17T17:36:11.938Z,8.40
2023-04-17T17:38:38.857Z,8.40
2023-04-17T17:41:05.686Z,8.30
2023-04-17T17:43:32.326Z,8.30
2023-04-17T17:45:59.031Z,8.30
2023-04-17T17:48:25.759Z,8.20
2023-04-17T17:50:58.089Z,8.20
2023-04-17T17:53:26.907Z,8.20
2023-04-17T17:55:54.779Z,8.10
2023-04-17T17:58:21.807Z,8.00
2023-04-17T18:00:49.152Z,8.00
2023-04-17T18:03:16.691Z,8.00
2023-04-17T18:05:45.150Z,8.00
2023-04-17T18:08:11.777Z,8.00
2023-04-17T18:10:38.667Z,8.00
2023-04-17T18:13:05.682Z,8.00
2023-04-17T18:15:32.248Z,7.90
2023-04-17T18:17:58.891Z,7.90
2023-04-17T18:20:25.639Z,7.90
2023-04-17T18:22:52.171Z,7.80
2023-04-17T18:25:18.853Z,7.90
2023-04-17T18:27:45.411Z,7.90
2023-04-17T18:30:12.326Z,7.80
2023-04-17T18:32:38.994Z,7.80
2023-04-17T18:35:06.107Z,7.80
2023-04-17T18:37:32.671Z,7.70
2023-04-17T18:39:59.188Z,7.70
2023-04-17T18:42:25.700Z,7.80
2023-04-17T18:44:52.251Z,7.70
2023-04-17T18:47:18.914Z,7.70
2023-04-17T18:49:45.489Z,7.70
2023-04-17T18:52:12.005Z,7.70
2023-04-17T18:54:38.857Z,7.60
2023-04-17T18:57:05.421Z,7.60
2023-04-17T18:59:31.973Z,7.60
2023-04-17T19:01:58.572Z,7.50
2023-04-17T19:04:26.027Z,7.50
2023-04-17T19:06:52.799Z,7.50
2023-04-17T19:09:19.534Z,7.50
2023-04-17T19:11:46.306Z,7.50
2023-04-17T19:14:13.039Z,7.60
2023-04-17T19:16:39.805Z,7.50
2023-04-17T19:19:06.545Z,7.60
2023-04-17T19:21:33.090Z,7.60
2023-04-17T19:23:59.597Z,7.60
2023-04-17T19:26:26.165Z,7.50
2023-04-17T19:28:52.679Z,7.50
2023-04-17T19:31:19.311Z,7.50
2023-04-17T19:33:45.963Z,7.40
2023-04-17T19:36:12.552Z,7.40
2023-04-17T19:38:39.055Z,7.50
2023-04-17T19:41:14.488Z,7.50
2023-04-17T19:43:42.056Z,7.50
2023-04-17T19:46:09.294Z,7.50
2023-04-17T19:48:36.567Z,7.50
2023-04-17T19:51:06.749Z,7.40
2023-04-17T19:53:35.084Z,7.50
2023-04-17T19:56:02.013Z,7.40
2023-04-17T19:58:28.804Z,7.40
2023-04-17T20:00:55.491Z,7.40
2023-04-17T20:03:22.132Z,7.30
2023-04-17T20:05:49.230Z,7.20
2023-04-17T20:08:15.909Z,7.30
2023-04-17T20:10:42.893Z,7.30
2023-04-17T20:13:12.513Z,7.30
2023-04-17T20:15:39.354Z,7.30
2023-04-17T20:18:06.980Z,7.30
2023-04-17T20:20:35.574Z,7.30
2023-04-17T20:23:03.662Z,7.30
2023-04-17T20:25:30.397Z,7.30
2023-04-17T20:27:57.103Z,7.30
2023-04-17T20:30:24.196Z,7.30
2023-04-17T20:32:51.021Z,7.20
2023-04-17T20:35:18.364Z,7.20
2023-04-17T20:37:45.203Z,7.20
2023-04-17T20:40:13.914Z,7.20
2023-04-17T20:42:41.323Z,7.20
2023-04-17T20:45:08.423Z,7.30
2023-04-17T20:47:35.143Z,7.30
2023-04-17T20:50:04.570Z,7.30
2023-04-17T20:52:31.125Z,7.20
2023-04-17T20:54:58.450Z,7.10
2023-04-17T20:57:25.167Z,7.10
2023-04-17T20:59:51.694Z,7.20
2023-04-17T21:02:18.360Z,7.20
2023-04-17T21:04:45.031Z,7.20
2023-04-17T21:07:11.615Z,7.20
2023-04-17T21:09:38.164Z,7.20
2023-04-17T21:12:05.397Z,7.20
2023-04-17T21:14:33.786Z,7.20
2023-04-17T21:17:00.444Z,7.20
2023-04-17T21:19:30.868Z,7.20
2023-04-17T21:21:58.288Z,7.10
2023-04-17T21:24:24.992Z,7.20
2023-04-17T21:26:53.324Z,7.20
2023-04-17T21:29:19.824Z,7.10
2023-04-17T21:31:46.438Z,7.10
2023-04-17T21:34:13.224Z,7.00
2023-04-17T21:36:40.051Z,7.00
2023-04-17T21:39:07.167Z,7.10
2023-04-17T21:41:33.833Z,7.10
2023-04-17T21:44:02.451Z,7.00
2023-04-17T21:46:29.236Z,7.00
2023-04-17T21:48:55.992Z,7.10
2023-04-17T21:51:22.799Z,7.20
2023-04-17T21:53:49.456Z,7.10
2023-04-17T21:56:15.983Z,7.00
2023-04-17T21:58:42.550Z,7.00
2023-04-17T22:01:09.111Z,7.00
2023-04-17T22:03:35.887Z,7.00
2023-04-17T22:06:02.440Z,7.00
2023-04-17T22:08:28.975Z,7.00
2023-04-17T22:10:56.395Z,7.00
2023-04-17T22:13:22.990Z,7.00
2023-04-17T22:15:49.533Z,7.00
2023-04-17T22:18:16.271Z,6.90
2023-04-17T22:20:42.772Z,7.00
2023-04-17T22:23:09.264Z,7.00
2023-04-17T22:25:36.214Z,7.00
2023-04-17T22:28:02.786Z,7.00
2023-04-17T22:30:29.302Z,7.00
2023-04-17T22:32:57.146Z,7.20
2023-04-17T22:35:23.696Z,7.00
2023-04-17T22:37:50.195Z,7.10
2023-04-17T22:40:16.769Z,7.00
2023-04-17T22:42:43.275Z,7.00
2023-04-17T22:45:10.714Z,7.00
2023-04-17T22:47:37.567Z,7.00
2023-04-17T22:50:05.461Z,7.00
2023-04-17T22:52:32.015Z,7.10
2023-04-17T22:54:58.811Z,7.10
2023-04-17T22:57:25.331Z,7.00
2023-04-17T22:59:51.839Z,7.10
2023-04-17T23:02:18.434Z,7.00
2023-04-17T23:04:45.019Z,7.00
2023-04-17T23:07:11.598Z,7.00
2023-04-17T23:09:38.103Z,7.00
2023-04-17T23:12:06.225Z,6.90
2023-04-17T23:14:32.914Z,6.90
2023-04-17T23:16:59.419Z,6.90
2023-04-17T23:19:26.088Z,6.80
2023-04-17T23:21:52.574Z,6.80
2023-04-17T23:24:19.085Z,6.80
2023-04-17T23:26:46.650Z,6.80
2023-04-17T23:29:13.570Z,6.80
2023-04-17T23:31:40.195Z,6.80
2023-04-17T23:34:06.774Z,6.80
2023-04-17T23:36:33.284Z,6.80
2023-04-17T23:38:59.852Z,6.80
2023-04-17T23:41:27.915Z,6.80
2023-04-17T23:43:55.951Z,6.80
2023-04-17T23:46:22.593Z,6.70
2023-04-17T23:48:49.285Z,6.80
2023-04-17T23:51:15.852Z,6.80
2023-04-17T23:53:42.367Z,6.80
2023-04-17T23:56:08.878Z,6.70
2023-04-17T23:58:35.392Z,6.70
